sensor_id;sensor_type;location;lat;lon;timestamp;P1;durP1;ratioP1;P2;durP2;ratioP2
36799;SDS011;22752;51.960;5.886;2023-12-07T00:00:39;17.10;;;10.97;;
36799;SDS011;22752;51.960;5.886;2023-12-07T00:03:04;13.10;;;8.30;;
36799;SDS011;22752;51.960;5.886;2023-12-07T00:05:33;13.87;;;9.07;;
36799;SDS011;22752;51.960;5.886;2023-12-07T00:07:58;17.23;;;10.03;;
36799;SDS011;22752;51.960;5.886;2023-12-07T00:10:24;21.30;;;11.20;;
36799;SDS011;22752;51.960;5.886;2023-12-07T00:12:50;20.93;;;12.90;;
36799;SDS011;22752;51.960;5.886;2023-12-07T00:15:15;19.37;;;12.57;;
36799;SDS011;22752;51.960;5.886;2023-12-07T00:17:41;18.77;;;11.47;;
36799;SDS011;22752;51.960;5.886;2023-12-07T00:20:07;19.77;;;12.13;;
36799;SDS011;22752;51.960;5.886;2023-12-07T00:22:33;16.33;;;11.33;;
36799;SDS011;22752;51.960;5.886;2023-12-07T00:24:59;17.57;;;10.93;;
36799;SDS011;22752;51.960;5.886;2023-12-07T00:27:25;17.97;;;11.37;;
36799;SDS011;22752;51.960;5.886;2023-12-07T00:29:50;15.87;;;10.60;;
36799;SDS011;22752;51.960;5.886;2023-12-07T00:32:16;20.00;;;11.77;;
36799;SDS011;22752;51.960;5.886;2023-12-07T00:34:42;17.33;;;10.40;;
36799;SDS011;22752;51.960;5.886;2023-12-07T00:37:08;19.50;;;12.03;;
36799;SDS011;22752;51.960;5.886;2023-12-07T00:39:34;18.07;;;11.03;;
36799;SDS011;22752;51.960;5.886;2023-12-07T00:42:01;17.90;;;10.43;;
36799;SDS011;22752;51.960;5.886;2023-12-07T00:44:28;15.40;;;9.73;;
36799;SDS011;22752;51.960;5.886;2023-12-07T00:46:53;18.03;;;10.17;;
36799;SDS011;22752;51.960;5.886;2023-12-07T00:49:19;14.83;;;9.97;;
36799;SDS011;22752;51.960;5.886;2023-12-07T00:51:44;16.57;;;10.20;;
36799;SDS011;22752;51.960;5.886;2023-12-07T00:54:10;15.40;;;8.90;;
36799;SDS011;22752;51.960;5.886;2023-12-07T00:56:36;15.23;;;9.60;;
36799;SDS011;22752;51.960;5.886;2023-12-07T00:59:02;17.23;;;11.60;;
36799;SDS011;22752;51.960;5.886;2023-12-07T01:01:28;17.03;;;9.07;;
36799;SDS011;22752;51.960;5.886;2023-12-07T01:03:53;17.50;;;11.00;;
36799;SDS011;22752;51.960;5.886;2023-12-07T01:06:19;17.33;;;10.37;;
36799;SDS011;22752;51.960;5.886;2023-12-07T01:08:44;19.63;;;10.60;;
36799;SDS011;22752;51.960;5.886;2023-12-07T01:11:10;16.67;;;9.77;;
36799;SDS011;22752;51.960;5.886;2023-12-07T01:13:36;17.33;;;10.67;;
36799;SDS011;22752;51.960;5.886;2023-12-07T01:16:02;17.80;;;10.70;;
36799;SDS011;22752;51.960;5.886;2023-12-07T01:18:27;17.40;;;9.40;;
36799;SDS011;22752;51.960;5.886;2023-12-07T01:20:53;15.73;;;9.90;;
36799;SDS011;22752;51.960;5.886;2023-12-07T01:23:18;16.80;;;10.73;;
36799;SDS011;22752;51.960;5.886;2023-12-07T01:25:44;18.20;;;10.27;;
36799;SDS011;22752;51.960;5.886;2023-12-07T01:28:10;16.23;;;9.67;;
36799;SDS011;22752;51.960;5.886;2023-12-07T01:30:35;15.67;;;10.37;;
36799;SDS011;22752;51.960;5.886;2023-12-07T01:33:01;17.50;;;10.73;;
36799;SDS011;22752;51.960;5.886;2023-12-07T01:35:27;16.67;;;9.93;;
36799;SDS011;22752;51.960;5.886;2023-12-07T01:37:53;16.90;;;10.47;;
36799;SDS011;22752;51.960;5.886;2023-12-07T01:40:19;17.77;;;10.10;;
36799;SDS011;22752;51.960;5.886;2023-12-07T01:42:54;19.60;;;11.33;;
36799;SDS011;22752;51.960;5.886;2023-12-07T01:45:20;18.97;;;12.30;;
36799;SDS011;22752;51.960;5.886;2023-12-07T01:47:46;21.07;;;12.17;;
36799;SDS011;22752;51.960;5.886;2023-12-07T01:50:14;26.03;;;11.23;;
36799;SDS011;22752;51.960;5.886;2023-12-07T01:52:43;24.43;;;12.33;;
36799;SDS011;22752;51.960;5.886;2023-12-07T01:55:10;18.10;;;11.30;;
36799;SDS011;22752;51.960;5.886;2023-12-07T01:57:37;19.60;;;12.33;;
36799;SDS011;22752;51.960;5.886;2023-12-07T02:00:03;17.83;;;11.90;;
36799;SDS011;22752;51.960;5.886;2023-12-07T02:02:30;25.00;;;12.80;;
36799;SDS011;22752;51.960;5.886;2023-12-07T02:04:57;31.37;;;13.33;;
36799;SDS011;22752;51.960;5.886;2023-12-07T02:07:23;29.37;;;13.80;;
36799;SDS011;22752;51.960;5.886;2023-12-07T02:09:49;23.57;;;11.83;;
36799;SDS011;22752;51.960;5.886;2023-12-07T02:12:15;21.50;;;11.57;;
36799;SDS011;22752;51.960;5.886;2023-12-07T02:14:41;31.30;;;12.17;;
36799;SDS011;22752;51.960;5.886;2023-12-07T02:17:09;33.33;;;12.17;;
36799;SDS011;22752;51.960;5.886;2023-12-07T02:22:12;59.43;;;18.13;;
36799;SDS011;22752;51.960;5.886;2023-12-07T02:25:08;43.70;;;16.40;;
36799;SDS011;22752;51.960;5.886;2023-12-07T02:30:05;37.30;;;15.87;;
36799;SDS011;22752;51.960;5.886;2023-12-07T02:32:32;186.90;;;23.60;;
36799;SDS011;22752;51.960;5.886;2023-12-07T02:34:58;74.83;;;18.40;;
36799;SDS011;22752;51.960;5.886;2023-12-07T02:37:25;31.70;;;14.40;;
36799;SDS011;22752;51.960;5.886;2023-12-07T02:39:54;30.13;;;14.60;;
36799;SDS011;22752;51.960;5.886;2023-12-07T02:42:21;28.10;;;14.07;;
36799;SDS011;22752;51.960;5.886;2023-12-07T02:44:48;32.70;;;14.13;;
36799;SDS011;22752;51.960;5.886;2023-12-07T02:47:16;44.73;;;14.80;;
36799;SDS011;22752;51.960;5.886;2023-12-07T02:49:42;41.47;;;14.73;;
36799;SDS011;22752;51.960;5.886;2023-12-07T02:52:08;34.63;;;13.87;;
36799;SDS011;22752;51.960;5.886;2023-12-07T02:54:33;28.87;;;14.30;;
36799;SDS011;22752;51.960;5.886;2023-12-07T02:56:59;31.77;;;13.40;;
36799;SDS011;22752;51.960;5.886;2023-12-07T02:59:25;49.43;;;15.83;;
36799;SDS011;22752;51.960;5.886;2023-12-07T03:01:50;51.63;;;16.03;;
36799;SDS011;22752;51.960;5.886;2023-12-07T03:04:16;23.90;;;14.77;;
36799;SDS011;22752;51.960;5.886;2023-12-07T03:06:41;38.57;;;17.20;;
36799;SDS011;22752;51.960;5.886;2023-12-07T03:09:07;22.00;;;13.20;;
36799;SDS011;22752;51.960;5.886;2023-12-07T03:11:32;26.90;;;14.70;;
36799;SDS011;22752;51.960;5.886;2023-12-07T03:13:58;27.60;;;13.93;;
36799;SDS011;22752;51.960;5.886;2023-12-07T03:16:24;31.17;;;14.50;;
36799;SDS011;22752;51.960;5.886;2023-12-07T03:18:50;48.03;;;14.73;;
36799;SDS011;22752;51.960;5.886;2023-12-07T03:21:16;30.20;;;15.07;;
36799;SDS011;22752;51.960;5.886;2023-12-07T03:23:41;30.17;;;13.50;;
36799;SDS011;22752;51.960;5.886;2023-12-07T03:26:07;25.13;;;15.07;;
36799;SDS011;22752;51.960;5.886;2023-12-07T03:28:32;29.93;;;15.10;;
36799;SDS011;22752;51.960;5.886;2023-12-07T03:30:58;26.50;;;13.50;;
36799;SDS011;22752;51.960;5.886;2023-12-07T03:33:24;21.23;;;13.53;;
36799;SDS011;22752;51.960;5.886;2023-12-07T03:35:49;18.43;;;11.73;;
36799;SDS011;22752;51.960;5.886;2023-12-07T03:38:15;17.47;;;11.40;;
36799;SDS011;22752;51.960;5.886;2023-12-07T03:40:41;25.10;;;11.63;;
36799;SDS011;22752;51.960;5.886;2023-12-07T03:43:06;26.57;;;13.33;;
36799;SDS011;22752;51.960;5.886;2023-12-07T03:45:32;51.50;;;16.73;;
36799;SDS011;22752;51.960;5.886;2023-12-07T03:47:57;39.57;;;17.03;;
36799;SDS011;22752;51.960;5.886;2023-12-07T03:50:23;26.17;;;14.77;;
36799;SDS011;22752;51.960;5.886;2023-12-07T03:52:49;20.27;;;13.80;;
36799;SDS011;22752;51.960;5.886;2023-12-07T03:55:14;22.13;;;13.33;;
36799;SDS011;22752;51.960;5.886;2023-12-07T03:57:40;21.70;;;13.03;;
36799;SDS011;22752;51.960;5.886;2023-12-07T04:00:06;21.07;;;12.77;;
36799;SDS011;22752;51.960;5.886;2023-12-07T04:02:34;23.80;;;12.90;;
36799;SDS011;22752;51.960;5.886;2023-12-07T04:05:00;28.00;;;16.50;;
36799;SDS011;22752;51.960;5.886;2023-12-07T04:07:27;20.53;;;13.63;;
36799;SDS011;22752;51.960;5.886;2023-12-07T04:09:53;23.97;;;15.07;;
36799;SDS011;22752;51.960;5.886;2023-12-07T04:12:19;19.27;;;13.30;;
36799;SDS011;22752;51.960;5.886;2023-12-07T04:14:45;19.20;;;11.57;;
36799;SDS011;22752;51.960;5.886;2023-12-07T04:17:10;16.30;;;11.27;;
36799;SDS011;22752;51.960;5.886;2023-12-07T04:19:36;17.47;;;11.70;;
36799;SDS011;22752;51.960;5.886;2023-12-07T04:22:01;14.20;;;10.03;;
36799;SDS011;22752;51.960;5.886;2023-12-07T04:24:27;13.20;;;9.43;;
36799;SDS011;22752;51.960;5.886;2023-12-07T04:26:53;18.30;;;11.73;;
36799;SDS011;22752;51.960;5.886;2023-12-07T04:29:19;16.37;;;11.37;;
36799;SDS011;22752;51.960;5.886;2023-12-07T04:31:45;16.57;;;11.70;;
36799;SDS011;22752;51.960;5.886;2023-12-07T04:34:10;14.33;;;10.27;;
36799;SDS011;22752;51.960;5.886;2023-12-07T04:36:36;15.63;;;11.37;;
36799;SDS011;22752;51.960;5.886;2023-12-07T04:39:02;19.47;;;12.87;;
36799;SDS011;22752;51.960;5.886;2023-12-07T04:41:28;19.50;;;13.47;;
36799;SDS011;22752;51.960;5.886;2023-12-07T04:43:54;16.77;;;12.10;;
36799;SDS011;22752;51.960;5.886;2023-12-07T04:46:19;41.07;;;17.20;;
36799;SDS011;22752;51.960;5.886;2023-12-07T04:48:45;27.87;;;16.53;;
36799;SDS011;22752;51.960;5.886;2023-12-07T04:51:11;56.60;;;21.57;;
36799;SDS011;22752;51.960;5.886;2023-12-07T04:53:36;27.90;;;16.87;;
36799;SDS011;22752;51.960;5.886;2023-12-07T04:56:02;45.13;;;18.17;;
36799;SDS011;22752;51.960;5.886;2023-12-07T04:58:28;39.53;;;20.07;;
36799;SDS011;22752;51.960;5.886;2023-12-07T05:00:53;63.93;;;22.83;;
36799;SDS011;22752;51.960;5.886;2023-12-07T05:03:20;39.67;;;18.90;;
36799;SDS011;22752;51.960;5.886;2023-12-07T05:05:46;32.60;;;16.57;;
36799;SDS011;22752;51.960;5.886;2023-12-07T05:08:13;48.73;;;17.73;;
36799;SDS011;22752;51.960;5.886;2023-12-07T05:10:38;46.73;;;18.40;;
36799;SDS011;22752;51.960;5.886;2023-12-07T05:13:04;30.07;;;15.93;;
36799;SDS011;22752;51.960;5.886;2023-12-07T05:15:29;148.30;;;23.30;;
36799;SDS011;22752;51.960;5.886;2023-12-07T05:17:55;54.77;;;18.93;;
36799;SDS011;22752;51.960;5.886;2023-12-07T05:20:21;51.23;;;20.10;;
36799;SDS011;22752;51.960;5.886;2023-12-07T05:22:49;45.47;;;18.50;;
36799;SDS011;22752;51.960;5.886;2023-12-07T05:25:15;66.77;;;20.43;;
36799;SDS011;22752;51.960;5.886;2023-12-07T05:27:40;113.27;;;21.87;;
36799;SDS011;22752;51.960;5.886;2023-12-07T05:30:06;202.10;;;24.07;;
36799;SDS011;22752;51.960;5.886;2023-12-07T05:32:32;89.20;;;21.13;;
36799;SDS011;22752;51.960;5.886;2023-12-07T05:34:58;61.57;;;23.00;;
36799;SDS011;22752;51.960;5.886;2023-12-07T05:37:24;53.03;;;21.13;;
36799;SDS011;22752;51.960;5.886;2023-12-07T05:39:49;44.73;;;20.90;;
36799;SDS011;22752;51.960;5.886;2023-12-07T05:42:15;56.60;;;24.07;;
36799;SDS011;22752;51.960;5.886;2023-12-07T05:44:41;43.83;;;22.67;;
36799;SDS011;22752;51.960;5.886;2023-12-07T05:47:06;89.50;;;24.23;;
36799;SDS011;22752;51.960;5.886;2023-12-07T05:49:33;53.27;;;20.90;;
36799;SDS011;22752;51.960;5.886;2023-12-07T05:51:59;80.50;;;23.00;;
36799;SDS011;22752;51.960;5.886;2023-12-07T05:54:24;41.27;;;20.30;;
36799;SDS011;22752;51.960;5.886;2023-12-07T05:56:50;109.40;;;25.53;;
36799;SDS011;22752;51.960;5.886;2023-12-07T05:59:16;88.10;;;25.10;;
36799;SDS011;22752;51.960;5.886;2023-12-07T06:01:42;86.33;;;27.63;;
36799;SDS011;22752;51.960;5.886;2023-12-07T06:04:10;73.70;;;26.37;;
36799;SDS011;22752;51.960;5.886;2023-12-07T06:06:37;120.67;;;28.93;;
36799;SDS011;22752;51.960;5.886;2023-12-07T06:09:03;65.23;;;23.87;;
36799;SDS011;22752;51.960;5.886;2023-12-07T06:11:30;51.07;;;23.20;;
36799;SDS011;22752;51.960;5.886;2023-12-07T06:13:56;84.50;;;26.67;;
36799;SDS011;22752;51.960;5.886;2023-12-07T06:16:24;96.07;;;24.80;;
36799;SDS011;22752;51.960;5.886;2023-12-07T06:18:50;101.60;;;25.93;;
36799;SDS011;22752;51.960;5.886;2023-12-07T06:21:16;91.30;;;23.83;;
36799;SDS011;22752;51.960;5.886;2023-12-07T06:23:41;75.97;;;26.53;;
36799;SDS011;22752;51.960;5.886;2023-12-07T06:26:07;154.97;;;29.73;;
36799;SDS011;22752;51.960;5.886;2023-12-07T06:28:33;41.90;;;21.33;;
36799;SDS011;22752;51.960;5.886;2023-12-07T06:31:04;48.13;;;21.90;;
36799;SDS011;22752;51.960;5.886;2023-12-07T06:33:31;177.63;;;33.63;;
36799;SDS011;22752;51.960;5.886;2023-12-07T06:35:56;50.43;;;24.87;;
36799;SDS011;22752;51.960;5.886;2023-12-07T06:38:22;71.87;;;25.63;;
36799;SDS011;22752;51.960;5.886;2023-12-07T06:40:48;92.00;;;25.67;;
36799;SDS011;22752;51.960;5.886;2023-12-07T06:43:13;67.90;;;26.00;;
36799;SDS011;22752;51.960;5.886;2023-12-07T06:45:39;90.17;;;25.47;;
36799;SDS011;22752;51.960;5.886;2023-12-07T06:48:05;56.23;;;23.10;;
36799;SDS011;22752;51.960;5.886;2023-12-07T06:50:31;59.70;;;25.20;;
36799;SDS011;22752;51.960;5.886;2023-12-07T06:52:56;57.63;;;23.37;;
36799;SDS011;22752;51.960;5.886;2023-12-07T06:55:22;56.97;;;24.17;;
36799;SDS011;22752;51.960;5.886;2023-12-07T06:57:48;69.63;;;23.03;;
36799;SDS011;22752;51.960;5.886;2023-12-07T07:00:13;60.60;;;23.93;;
36799;SDS011;22752;51.960;5.886;2023-12-07T07:02:39;31.47;;;21.00;;
36799;SDS011;22752;51.960;5.886;2023-12-07T07:05:05;42.23;;;22.53;;
36799;SDS011;22752;51.960;5.886;2023-12-07T07:07:31;44.93;;;24.27;;
36799;SDS011;22752;51.960;5.886;2023-12-07T07:09:57;30.30;;;21.77;;
36799;SDS011;22752;51.960;5.886;2023-12-07T07:12:22;80.17;;;25.80;;
36799;SDS011;22752;51.960;5.886;2023-12-07T07:14:48;40.87;;;21.40;;
36799;SDS011;22752;51.960;5.886;2023-12-07T07:17:14;35.97;;;20.80;;
36799;SDS011;22752;51.960;5.886;2023-12-07T07:19:40;98.30;;;27.37;;
36799;SDS011;22752;51.960;5.886;2023-12-07T07:22:07;35.33;;;20.97;;
36799;SDS011;22752;51.960;5.886;2023-12-07T07:24:34;76.17;;;25.57;;
36799;SDS011;22752;51.960;5.886;2023-12-07T07:27:00;48.97;;;23.70;;
36799;SDS011;22752;51.960;5.886;2023-12-07T07:29:25;58.40;;;23.23;;
36799;SDS011;22752;51.960;5.886;2023-12-07T07:31:52;68.77;;;23.33;;
36799;SDS011;22752;51.960;5.886;2023-12-07T07:34:18;43.10;;;23.73;;
36799;SDS011;22752;51.960;5.886;2023-12-07T07:36:44;34.23;;;22.40;;
36799;SDS011;22752;51.960;5.886;2023-12-07T07:39:09;64.90;;;26.27;;
36799;SDS011;22752;51.960;5.886;2023-12-07T07:41:36;65.60;;;27.40;;
36799;SDS011;22752;51.960;5.886;2023-12-07T07:44:01;46.13;;;25.10;;
36799;SDS011;22752;51.960;5.886;2023-12-07T07:46:27;43.23;;;24.20;;
36799;SDS011;22752;51.960;5.886;2023-12-07T07:48:53;78.37;;;26.70;;
36799;SDS011;22752;51.960;5.886;2023-12-07T07:51:19;32.83;;;22.40;;
36799;SDS011;22752;51.960;5.886;2023-12-07T07:53:53;41.43;;;24.20;;
36799;SDS011;22752;51.960;5.886;2023-12-07T07:56:19;102.30;;;29.87;;
36799;SDS011;22752;51.960;5.886;2023-12-07T07:58:45;36.23;;;23.10;;
36799;SDS011;22752;51.960;5.886;2023-12-07T08:01:11;71.30;;;26.80;;
36799;SDS011;22752;51.960;5.886;2023-12-07T08:03:36;42.47;;;23.80;;
36799;SDS011;22752;51.960;5.886;2023-12-07T08:06:02;51.87;;;24.27;;
36799;SDS011;22752;51.960;5.886;2023-12-07T08:08:28;59.13;;;25.70;;
36799;SDS011;22752;51.960;5.886;2023-12-07T08:10:54;107.87;;;30.00;;
36799;SDS011;22752;51.960;5.886;2023-12-07T08:13:19;70.10;;;29.53;;
36799;SDS011;22752;51.960;5.886;2023-12-07T08:15:45;42.90;;;25.33;;
36799;SDS011;22752;51.960;5.886;2023-12-07T08:18:11;35.03;;;23.27;;
36799;SDS011;22752;51.960;5.886;2023-12-07T08:20:36;51.53;;;23.93;;
36799;SDS011;22752;51.960;5.886;2023-12-07T08:23:02;75.73;;;26.77;;
36799;SDS011;22752;51.960;5.886;2023-12-07T08:25:28;84.47;;;29.20;;
36799;SDS011;22752;51.960;5.886;2023-12-07T08:27:54;136.73;;;32.90;;
36799;SDS011;22752;51.960;5.886;2023-12-07T08:30:19;129.70;;;31.07;;
36799;SDS011;22752;51.960;5.886;2023-12-07T08:32:45;110.33;;;33.20;;
36799;SDS011;22752;51.960;5.886;2023-12-07T08:35:11;73.30;;;27.60;;
36799;SDS011;22752;51.960;5.886;2023-12-07T08:37:37;88.27;;;30.17;;
36799;SDS011;22752;51.960;5.886;2023-12-07T08:40:03;91.00;;;28.40;;
36799;SDS011;22752;51.960;5.886;2023-12-07T08:42:30;87.03;;;32.60;;
36799;SDS011;22752;51.960;5.886;2023-12-07T08:44:56;268.23;;;40.17;;
36799;SDS011;22752;51.960;5.886;2023-12-07T08:47:22;51.43;;;28.50;;
36799;SDS011;22752;51.960;5.886;2023-12-07T08:49:48;67.27;;;30.53;;
36799;SDS011;22752;51.960;5.886;2023-12-07T08:52:16;91.83;;;31.70;;
36799;SDS011;22752;51.960;5.886;2023-12-07T08:54:43;105.00;;;31.07;;
36799;SDS011;22752;51.960;5.886;2023-12-07T08:57:09;120.00;;;32.00;;
36799;SDS011;22752;51.960;5.886;2023-12-07T08:59:35;70.67;;;28.90;;
36799;SDS011;22752;51.960;5.886;2023-12-07T09:02:00;143.53;;;34.00;;
36799;SDS011;22752;51.960;5.886;2023-12-07T09:04:26;117.03;;;30.33;;
36799;SDS011;22752;51.960;5.886;2023-12-07T09:06:52;83.23;;;29.63;;
36799;SDS011;22752;51.960;5.886;2023-12-07T09:09:18;89.67;;;32.93;;
36799;SDS011;22752;51.960;5.886;2023-12-07T09:11:44;77.47;;;30.17;;
36799;SDS011;22752;51.960;5.886;2023-12-07T09:14:10;71.87;;;27.07;;
36799;SDS011;22752;51.960;5.886;2023-12-07T09:16:42;105.13;;;40.20;;
36799;SDS011;22752;51.960;5.886;2023-12-07T09:19:09;66.20;;;27.33;;
36799;SDS011;22752;51.960;5.886;2023-12-07T09:21:35;76.17;;;27.40;;
36799;SDS011;22752;51.960;5.886;2023-12-07T09:24:01;66.50;;;24.53;;
36799;SDS011;22752;51.960;5.886;2023-12-07T09:26:26;47.67;;;23.63;;
36799;SDS011;22752;51.960;5.886;2023-12-07T09:28:52;54.83;;;25.60;;
36799;SDS011;22752;51.960;5.886;2023-12-07T09:31:18;93.17;;;25.70;;
36799;SDS011;22752;51.960;5.886;2023-12-07T09:33:43;59.23;;;25.33;;
36799;SDS011;22752;51.960;5.886;2023-12-07T09:36:10;99.50;;;24.77;;
36799;SDS011;22752;51.960;5.886;2023-12-07T09:38:36;76.00;;;25.07;;
36799;SDS011;22752;51.960;5.886;2023-12-07T09:41:03;54.13;;;23.47;;
36799;SDS011;22752;51.960;5.886;2023-12-07T09:43:29;56.83;;;21.60;;
36799;SDS011;22752;51.960;5.886;2023-12-07T09:45:54;64.70;;;20.43;;
36799;SDS011;22752;51.960;5.886;2023-12-07T09:48:22;77.70;;;22.47;;
36799;SDS011;22752;51.960;5.886;2023-12-07T09:50:48;66.23;;;21.13;;
36799;SDS011;22752;51.960;5.886;2023-12-07T09:53:14;42.93;;;20.53;;
36799;SDS011;22752;51.960;5.886;2023-12-07T09:55:40;36.70;;;18.63;;
36799;SDS011;22752;51.960;5.886;2023-12-07T09:58:06;42.60;;;19.27;;
36799;SDS011;22752;51.960;5.886;2023-12-07T10:00:32;56.57;;;21.17;;
36799;SDS011;22752;51.960;5.886;2023-12-07T10:02:58;42.00;;;20.50;;
36799;SDS011;22752;51.960;5.886;2023-12-07T10:05:24;44.90;;;17.83;;
36799;SDS011;22752;51.960;5.886;2023-12-07T10:07:49;38.00;;;18.80;;
36799;SDS011;22752;51.960;5.886;2023-12-07T10:10:16;41.97;;;20.13;;
36799;SDS011;22752;51.960;5.886;2023-12-07T10:15:19;30.50;;;17.60;;
36799;SDS011;22752;51.960;5.886;2023-12-07T10:17:52;41.47;;;19.60;;
36799;SDS011;22752;51.960;5.886;2023-12-07T10:20:24;38.33;;;19.17;;
36799;SDS011;22752;51.960;5.886;2023-12-07T10:23:06;38.70;;;17.97;;
36799;SDS011;22752;51.960;5.886;2023-12-07T10:25:40;41.58;;;19.17;;
36799;SDS011;22752;51.960;5.886;2023-12-07T10:28:07;40.23;;;17.23;;
36799;SDS011;22752;51.960;5.886;2023-12-07T10:30:36;35.03;;;18.03;;
36799;SDS011;22752;51.960;5.886;2023-12-07T10:33:03;39.13;;;19.00;;
36799;SDS011;22752;51.960;5.886;2023-12-07T10:35:29;49.93;;;19.27;;
36799;SDS011;22752;51.960;5.886;2023-12-07T10:37:55;60.50;;;21.60;;
36799;SDS011;22752;51.960;5.886;2023-12-07T10:40:21;50.67;;;19.33;;
36799;SDS011;22752;51.960;5.886;2023-12-07T10:42:49;44.70;;;18.47;;
36799;SDS011;22752;51.960;5.886;2023-12-07T10:45:21;44.53;;;19.33;;
36799;SDS011;22752;51.960;5.886;2023-12-07T10:47:49;52.33;;;19.93;;
36799;SDS011;22752;51.960;5.886;2023-12-07T10:50:21;50.97;;;20.00;;
36799;SDS011;22752;51.960;5.886;2023-12-07T10:52:53;56.13;;;21.17;;
36799;SDS011;22752;51.960;5.886;2023-12-07T10:55:25;59.23;;;21.70;;
36799;SDS011;22752;51.960;5.886;2023-12-07T10:57:54;78.80;;;23.97;;
36799;SDS011;22752;51.960;5.886;2023-12-07T11:00:23;75.83;;;23.53;;
36799;SDS011;22752;51.960;5.886;2023-12-07T11:02:52;79.17;;;23.57;;
36799;SDS011;22752;51.960;5.886;2023-12-07T11:05:19;64.37;;;22.40;;
36799;SDS011;22752;51.960;5.886;2023-12-07T11:10:27;67.70;;;24.00;;
36799;SDS011;22752;51.960;5.886;2023-12-07T11:15:52;76.80;;;25.40;;
36799;SDS011;22752;51.960;5.886;2023-12-07T11:18:18;73.37;;;24.83;;
36799;SDS011;22752;51.960;5.886;2023-12-07T11:20:44;76.77;;;25.80;;
36799;SDS011;22752;51.960;5.886;2023-12-07T11:23:15;69.03;;;24.77;;
36799;SDS011;22752;51.960;5.886;2023-12-07T11:25:44;70.40;;;25.33;;
36799;SDS011;22752;51.960;5.886;2023-12-07T11:28:11;63.67;;;23.03;;
36799;SDS011;22752;51.960;5.886;2023-12-07T11:30:37;73.50;;;26.77;;
36799;SDS011;22752;51.960;5.886;2023-12-07T11:33:06;77.97;;;28.87;;
36799;SDS011;22752;51.960;5.886;2023-12-07T11:35:32;89.23;;;31.67;;
36799;SDS011;22752;51.960;5.886;2023-12-07T11:38:05;77.60;;;32.03;;
36799;SDS011;22752;51.960;5.886;2023-12-07T11:40:40;90.37;;;31.80;;
36799;SDS011;22752;51.960;5.886;2023-12-07T11:43:07;77.30;;;30.40;;
36799;SDS011;22752;51.960;5.886;2023-12-07T11:45:39;74.23;;;32.27;;
36799;SDS011;22752;51.960;5.886;2023-12-07T11:48:10;72.03;;;31.13;;
36799;SDS011;22752;51.960;5.886;2023-12-07T11:50:52;74.63;;;32.40;;
36799;SDS011;22752;51.960;5.886;2023-12-07T11:53:23;68.10;;;28.77;;
36799;SDS011;22752;51.960;5.886;2023-12-07T11:55:51;72.07;;;30.80;;
36799;SDS011;22752;51.960;5.886;2023-12-07T11:58:17;71.40;;;31.23;;
36799;SDS011;22752;51.960;5.886;2023-12-07T12:00:43;70.80;;;32.20;;
36799;SDS011;22752;51.960;5.886;2023-12-07T12:03:11;75.53;;;32.30;;
36799;SDS011;22752;51.960;5.886;2023-12-07T12:05:38;67.80;;;29.83;;
36799;SDS011;22752;51.960;5.886;2023-12-07T12:08:05;85.00;;;33.87;;
36799;SDS011;22752;51.960;5.886;2023-12-07T12:10:33;78.70;;;31.67;;
36799;SDS011;22752;51.960;5.886;2023-12-07T12:13:02;83.73;;;33.47;;
36799;SDS011;22752;51.960;5.886;2023-12-07T12:15:29;77.53;;;33.23;;
36799;SDS011;22752;51.960;5.886;2023-12-07T12:17:58;77.70;;;33.17;;
36799;SDS011;22752;51.960;5.886;2023-12-07T12:20:25;81.63;;;35.60;;
36799;SDS011;22752;51.960;5.886;2023-12-07T12:22:51;70.40;;;31.33;;
36799;SDS011;22752;51.960;5.886;2023-12-07T12:25:29;71.53;;;32.77;;
36799;SDS011;22752;51.960;5.886;2023-12-07T12:27:56;65.87;;;29.73;;
36799;SDS011;22752;51.960;5.886;2023-12-07T12:30:23;67.73;;;31.17;;
36799;SDS011;22752;51.960;5.886;2023-12-07T12:32:49;73.40;;;31.80;;
36799;SDS011;22752;51.960;5.886;2023-12-07T12:35:18;63.43;;;30.53;;
36799;SDS011;22752;51.960;5.886;2023-12-07T12:37:45;73.83;;;33.33;;
36799;SDS011;22752;51.960;5.886;2023-12-07T12:40:14;66.50;;;31.53;;
36799;SDS011;22752;51.960;5.886;2023-12-07T12:42:53;70.57;;;32.37;;
36799;SDS011;22752;51.960;5.886;2023-12-07T12:45:19;77.83;;;34.30;;
36799;SDS011;22752;51.960;5.886;2023-12-07T12:47:45;69.17;;;32.30;;
36799;SDS011;22752;51.960;5.886;2023-12-07T12:50:13;72.07;;;33.30;;
36799;SDS011;22752;51.960;5.886;2023-12-07T12:53:07;81.27;;;34.93;;
36799;SDS011;22752;51.960;5.886;2023-12-07T12:55:35;79.53;;;33.97;;
36799;SDS011;22752;51.960;5.886;2023-12-07T12:58:02;74.97;;;32.80;;
36799;SDS011;22752;51.960;5.886;2023-12-07T13:00:29;79.30;;;33.13;;
36799;SDS011;22752;51.960;5.886;2023-12-07T13:02:57;67.20;;;31.03;;
36799;SDS011;22752;51.960;5.886;2023-12-07T13:05:24;77.43;;;31.77;;
36799;SDS011;22752;51.960;5.886;2023-12-07T13:07:50;62.00;;;30.27;;
36799;SDS011;22752;51.960;5.886;2023-12-07T13:10:16;65.70;;;31.67;;
36799;SDS011;22752;51.960;5.886;2023-12-07T13:12:42;67.70;;;32.80;;
36799;SDS011;22752;51.960;5.886;2023-12-07T13:15:08;62.47;;;29.10;;
36799;SDS011;22752;51.960;5.886;2023-12-07T13:17:35;69.13;;;34.30;;
36799;SDS011;22752;51.960;5.886;2023-12-07T13:20:01;76.10;;;35.33;;
36799;SDS011;22752;51.960;5.886;2023-12-07T13:22:26;74.53;;;37.03;;
36799;SDS011;22752;51.960;5.886;2023-12-07T13:24:52;82.07;;;36.63;;
36799;SDS011;22752;51.960;5.886;2023-12-07T13:27:19;77.07;;;37.03;;
36799;SDS011;22752;51.960;5.886;2023-12-07T13:29:44;76.70;;;36.80;;
36799;SDS011;22752;51.960;5.886;2023-12-07T13:32:10;81.27;;;37.43;;
36799;SDS011;22752;51.960;5.886;2023-12-07T13:34:36;80.70;;;39.57;;
36799;SDS011;22752;51.960;5.886;2023-12-07T13:37:03;83.07;;;39.63;;
36799;SDS011;22752;51.960;5.886;2023-12-07T13:39:30;90.07;;;39.50;;
36799;SDS011;22752;51.960;5.886;2023-12-07T13:41:56;92.33;;;40.50;;
36799;SDS011;22752;51.960;5.886;2023-12-07T13:44:21;86.57;;;40.73;;
36799;SDS011;22752;51.960;5.886;2023-12-07T13:46:49;84.80;;;38.83;;
36799;SDS011;22752;51.960;5.886;2023-12-07T13:49:15;96.20;;;41.63;;
36799;SDS011;22752;51.960;5.886;2023-12-07T13:51:41;92.50;;;41.73;;
36799;SDS011;22752;51.960;5.886;2023-12-07T13:54:07;86.90;;;39.40;;
36799;SDS011;22752;51.960;5.886;2023-12-07T13:56:33;86.00;;;39.70;;
36799;SDS011;22752;51.960;5.886;2023-12-07T13:59:00;77.73;;;38.20;;
36799;SDS011;22752;51.960;5.886;2023-12-07T14:01:26;81.30;;;40.07;;
36799;SDS011;22752;51.960;5.886;2023-12-07T14:03:51;66.83;;;35.33;;
36799;SDS011;22752;51.960;5.886;2023-12-07T14:06:24;75.40;;;38.07;;
36799;SDS011;22752;51.960;5.886;2023-12-07T14:08:50;72.90;;;34.55;;
36799;SDS011;22752;51.960;5.886;2023-12-07T14:11:16;66.43;;;34.87;;
36799;SDS011;22752;51.960;5.886;2023-12-07T14:13:43;76.57;;;35.70;;
36799;SDS011;22752;51.960;5.886;2023-12-07T14:16:11;74.20;;;37.53;;
36799;SDS011;22752;51.960;5.886;2023-12-07T14:18:37;74.23;;;37.90;;
36799;SDS011;22752;51.960;5.886;2023-12-07T14:21:03;65.30;;;34.50;;
36799;SDS011;22752;51.960;5.886;2023-12-07T14:23:28;71.70;;;37.63;;
36799;SDS011;22752;51.960;5.886;2023-12-07T14:25:54;74.63;;;37.57;;
36799;SDS011;22752;51.960;5.886;2023-12-07T14:28:23;73.53;;;38.03;;
36799;SDS011;22752;51.960;5.886;2023-12-07T14:30:49;65.03;;;35.83;;